Time;durP1;ratioP1;P1;durP2;ratioP2;P2;SDS_P1;SDS_P2;PMS_P1;PMS_P2;Temp;Humidity;BMP_temperature;BMP_pressure;BME280_temperature;BME280_humidity;BME280_pressure;Samples;Min_cycle;Max_cycle;Signal;HPM_P1;HPM_P2
2023/11/21 00:00:38;;;;;;;46.10;25.65;;;7.80;99.90;;;;;;5052604;28;20039;-74
2023/11/21 00:03:04;;;;;;;36.20;22.95;;;7.80;99.90;;;;;;5052676;28;20036;-74
2023/11/21 00:05:29;;;;;;;43.90;23.85;;;7.70;99.90;;;;;;5052823;28;20025;-74
2023/11/21 00:07:55;;;;;;;51.40;27.75;;;7.70;99.90;;;;;;5052766;28;20036;-74
2023/11/21 00:10:21;;;;;;;45.92;24.50;;;7.70;99.90;;;;;;5052651;28;20096;-74
2023/11/21 00:12:48;;;;;;;41.90;25.52;;;7.70;99.90;;;;;;5052566;28;20446;-74
2023/11/21 00:15:13;;;;;;;49.33;27.13;;;7.70;99.90;;;;;;5052536;28;20388;-74
2023/11/21 00:17:39;;;;;;;47.15;26.23;;;7.70;99.90;;;;;;5052575;28;20029;-74
2023/11/21 00:20:07;;;;;;;41.08;24.90;;;7.70;99.90;;;;;;5052220;28;20032;-74
2023/11/21 00:22:34;;;;;;;47.08;25.80;;;7.70;99.90;;;;;;5052239;28;20415;-75
2023/11/21 00:24:59;;;;;;;46.80;25.73;;;7.70;99.90;;;;;;5052587;28;20028;-74
2023/11/21 00:27:25;;;;;;;41.40;26.73;;;7.70;99.90;;;;;;5052546;28;20107;-73
2023/11/21 00:29:51;;;;;;;45.58;25.38;;;7.70;99.90;;;;;;5052526;28;20029;-73
2023/11/21 00:32:16;;;;;;;47.60;26.45;;;7.70;99.90;;;;;;5052033;28;20452;-74
2023/11/21 00:34:42;;;;;;;45.92;26.65;;;7.70;99.90;;;;;;5052132;28;20122;-75
2023/11/21 00:37:07;;;;;;;48.10;25.83;;;7.70;99.90;;;;;;5052381;28;20029;-73
2023/11/21 00:39:35;;;;;;;52.55;27.88;;;7.70;99.90;;;;;;5052205;28;20106;-73
2023/11/21 00:42:00;;;;;;;51.47;28.15;;;7.70;99.90;;;;;;5051986;28;20067;-73
2023/11/21 00:44:26;;;;;;;40.92;24.33;;;7.60;99.90;;;;;;5052345;28;20060;-74
2023/11/21 00:46:51;;;;;;;51.80;26.90;;;7.70;99.90;;;;;;5052062;28;20032;-74
2023/11/21 00:49:17;;;;;;;41.13;24.27;;;7.70;99.90;;;;;;5052002;28;20527;-73
2023/11/21 00:51:43;;;;;;;46.83;26.60;;;7.70;99.90;;;;;;5052228;28;20041;-73
2023/11/21 00:54:08;;;;;;;53.28;28.58;;;7.70;99.90;;;;;;5052281;28;20037;-75
2023/11/21 00:56:34;;;;;;;46.90;26.60;;;7.60;99.90;;;;;;5052214;28;20063;-73
2023/11/21 00:58:59;;;;;;;44.55;25.85;;;7.60;99.90;;;;;;5051767;28;20060;-73
2023/11/21 01:01:25;;;;;;;45.53;27.45;;;7.60;99.90;;;;;;5052289;28;20033;-73
2023/11/21 01:03:51;;;;;;;41.53;26.13;;;7.60;99.90;;;;;;5052095;28;20033;-74
2023/11/21 01:06:16;;;;;;;41.92;25.60;;;7.60;99.90;;;;;;5053766;28;20389;-74
2023/11/21 01:08:44;;;;;;;41.05;26.17;;;7.60;99.90;;;;;;5055852;28;20044;-74
2023/11/21 01:11:11;;;;;;;42.70;26.23;;;7.60;99.90;;;;;;5055836;28;20064;-74
2023/11/21 01:13:39;;;;;;;38.00;24.75;;;7.60;99.90;;;;;;5055348;28;20029;-74
2023/11/21 01:16:06;;;;;;;44.67;25.80;;;7.60;99.90;;;;;;5055702;28;20554;-73
2023/11/21 01:18:32;;;;;;;40.50;25.13;;;7.50;99.90;;;;;;5055475;28;20475;-73
2023/11/21 01:20:57;;;;;;;46.85;25.90;;;7.50;99.90;;;;;;5055605;28;20033;-75
2023/11/21 01:23:23;;;;;;;47.28;26.40;;;7.50;99.90;;;;;;5055553;28;20036;-73
2023/11/21 01:25:51;;;;;;;43.65;26.20;;;7.50;99.90;;;;;;5055448;28;20040;-73
2023/11/21 01:28:17;;;;;;;40.10;24.70;;;7.50;99.90;;;;;;5055022;28;20079;-73
2023/11/21 01:30:42;;;;;;;42.65;25.15;;;7.50;99.90;;;;;;5055315;28;20037;-73
2023/11/21 01:33:08;;;;;;;33.22;22.42;;;7.50;99.90;;;;;;5054969;28;20193;-74
2023/11/21 01:35:34;;;;;;;38.63;23.83;;;7.50;99.90;;;;;;5055093;28;20036;-73
2023/11/21 01:38:00;;;;;;;44.92;23.17;;;7.50;99.90;;;;;;5055228;28;20035;-74
2023/11/21 01:40:25;;;;;;;45.60;27.17;;;7.40;99.90;;;;;;5054738;28;20017;-73
2023/11/21 01:42:53;;;;;;;47.22;26.60;;;7.40;99.90;;;;;;5054982;28;20024;-73
2023/11/21 01:45:19;;;;;;;38.25;25.13;;;7.40;99.90;;;;;;5054929;28;20067;-73
2023/11/21 01:47:45;;;;;;;52.78;28.38;;;7.40;99.90;;;;;;5055061;28;20029;-74
2023/11/21 01:50:16;;;;;;;49.65;26.98;;;7.40;99.90;;;;;;5054771;28;20166;-74
2023/11/21 01:52:44;;;;;;;44.38;27.05;;;7.40;99.90;;;;;;5054934;28;20391;-74
2023/11/21 01:55:12;;;;;;;48.15;26.80;;;7.40;99.90;;;;;;5054840;28;20094;-74
2023/11/21 01:57:37;;;;;;;45.22;26.00;;;7.40;99.90;;;;;;5054445;28;20040;-74
2023/11/21 02:00:15;;;;;;;44.88;26.00;;;7.30;99.90;;;;;;5054524;28;20119;-74
2023/11/21 02:02:42;;;;;;;46.65;28.40;;;7.30;99.90;;;;;;5054813;28;20108;-74
2023/11/21 02:05:08;;;;;;;50.47;28.40;;;7.30;99.90;;;;;;5054336;28;20470;-73
2023/11/21 02:07:35;;;;;;;43.95;26.85;;;7.30;99.90;;;;;;5054646;28;20443;-73
2023/11/21 02:10:00;;;;;;;52.63;29.13;;;7.30;99.90;;;;;;5054642;28;20032;-73
2023/11/21 02:12:26;;;;;;;53.85;29.20;;;7.30;99.90;;;;;;5054284;28;20040;-73
2023/11/21 02:14:52;;;;;;;59.63;30.20;;;7.30;99.90;;;;;;5054560;28;20111;-73
2023/11/21 02:17:18;;;;;;;50.95;28.88;;;7.30;99.90;;;;;;5054410;28;20110;-73
2023/11/21 02:19:44;;;;;;;54.88;29.85;;;7.30;99.90;;;;;;5054222;28;20033;-74
2023/11/21 02:22:11;;;;;;;44.72;26.60;;;7.30;99.90;;;;;;5054313;28;20052;-73
2023/11/21 02:24:37;;;;;;;49.40;28.02;;;7.30;99.90;;;;;;5054003;28;20169;-73
2023/11/21 02:27:03;;;;;;;44.63;24.38;;;7.30;99.90;;;;;;5054366;28;20344;-74
2023/11/21 02:29:28;;;;;;;41.15;25.17;;;7.30;99.90;;;;;;5054315;28;20033;-74
2023/11/21 02:31:55;;;;;;;37.00;23.35;;;7.30;99.90;;;;;;5054327;28;20029;-73
2023/11/21 02:34:22;;;;;;;49.78;24.50;;;7.30;99.90;;;;;;5054042;28;20033;-73
2023/11/21 02:36:49;;;;;;;44.38;24.98;;;7.30;99.90;;;;;;5054099;28;20155;-74
2023/11/21 02:39:16;;;;;;;55.17;27.48;;;7.30;99.90;;;;;;5053891;28;20029;-74
2023/11/21 02:41:42;;;;;;;40.50;24.00;;;7.30;99.90;;;;;;5054124;28;20479;-74
2023/11/21 02:44:09;;;;;;;48.75;26.08;;;7.40;99.90;;;;;;5054064;28;20074;-74
2023/11/21 02:46:36;;;;;;;53.10;27.85;;;7.40;99.90;;;;;;5053889;28;20024;-74
2023/11/21 02:49:02;;;;;;;54.75;28.50;;;7.40;99.90;;;;;;5053807;28;20383;-74
2023/11/21 02:51:28;;;;;;;51.58;27.05;;;7.40;99.90;;;;;;5053857;28;20028;-73
2023/11/21 02:53:58;;;;;;;40.70;24.90;;;7.40;99.90;;;;;;5053757;28;20599;-73
2023/11/21 02:56:25;;;;;;;37.35;24.08;;;7.40;99.90;;;;;;5053639;28;20114;-73
2023/11/21 02:58:50;;;;;;;38.40;23.10;;;7.40;99.90;;;;;;5053263;28;20136;-73
2023/11/21 03:01:16;;;;;;;37.70;22.45;;;7.40;99.90;;;;;;5053519;28;20498;-73
2023/11/21 03:03:42;;;;;;;42.53;23.38;;;7.40;99.90;;;;;;5053492;28;20028;-73
2023/11/21 03:06:08;;;;;;;47.40;25.15;;;7.40;99.90;;;;;;5053585;28;20391;-73
2023/11/21 03:08:34;;;;;;;36.10;23.00;;;7.30;99.90;;;;;;5053584;28;20501;-73
2023/11/21 03:11:00;;;;;;;40.80;25.02;;;7.30;99.90;;;;;;5053414;28;20116;-73
2023/11/21 03:13:26;;;;;;;40.65;23.73;;;7.30;99.90;;;;;;5053531;28;20113;-74
2023/11/21 03:15:51;;;;;;;41.15;23.50;;;7.30;99.90;;;;;;5053372;28;20393;-73
2023/11/21 03:18:17;;;;;;;45.28;24.70;;;7.30;99.90;;;;;;5053306;28;20486;-73
2023/11/21 03:20:46;;;;;;;42.30;24.58;;;7.30;99.90;;;;;;5053344;28;20138;-73
2023/11/21 03:23:11;;;;;;;43.20;25.23;;;7.30;99.90;;;;;;5052769;28;20028;-74
2023/11/21 03:25:37;;;;;;;43.33;24.67;;;7.40;99.90;;;;;;5052823;28;20032;-75
2023/11/21 03:28:03;;;;;;;42.30;24.88;;;7.40;99.90;;;;;;5053080;28;20036;-73
2023/11/21 03:30:29;;;;;;;44.53;26.42;;;7.40;99.90;;;;;;5052634;28;20086;-74
2023/11/21 03:32:54;;;;;;;44.40;26.58;;;7.40;99.90;;;;;;5053197;28;20082;-74
2023/11/21 03:35:21;;;;;;;44.10;25.50;;;7.40;99.90;;;;;;5053006;28;20108;-73
2023/11/21 03:37:47;;;;;;;50.10;26.35;;;7.40;99.90;;;;;;5053095;28;20498;-73
2023/11/21 03:40:12;;;;;;;40.25;24.02;;;7.40;99.90;;;;;;5052584;28;20115;-74
2023/11/21 03:42:39;;;;;;;44.33;24.02;;;7.40;99.90;;;;;;5052580;28;20414;-73
2023/11/21 03:45:06;;;;;;;36.63;22.35;;;7.40;99.90;;;;;;5052902;28;20455;-73
2023/11/21 03:47:31;;;;;;;50.65;26.23;;;7.40;99.90;;;;;;5052864;28;20025;-73
2023/11/21 03:49:57;;;;;;;37.75;23.58;;;7.40;99.90;;;;;;5052929;28;20471;-73
2023/11/21 03:52:24;;;;;;;46.22;27.42;;;7.50;99.90;;;;;;5052891;28;20033;-73
2023/11/21 03:54:49;;;;;;;48.78;27.15;;;7.50;99.90;;;;;;5052749;28;20394;-73
2023/11/21 03:57:15;;;;;;;46.00;27.38;;;7.50;99.90;;;;;;5052769;28;20037;-74
2023/11/21 03:59:41;;;;;;;44.33;25.85;;;7.50;99.90;;;;;;5052122;28;20416;-73
2023/11/21 04:02:08;;;;;;;48.83;26.58;;;7.50;99.90;;;;;;5052277;28;20025;-73
2023/11/21 04:04:34;;;;;;;40.28;25.65;;;7.50;99.90;;;;;;5053368;28;20025;-73
2023/11/21 04:06:59;;;;;;;48.78;27.60;;;7.50;99.90;;;;;;5053341;28;20029;-73
2023/11/21 04:09:25;;;;;;;52.63;27.58;;;7.50;99.90;;;;;;5053420;28;20367;-74
2023/11/21 04:11:52;;;;;;;48.75;26.58;;;7.50;99.90;;;;;;5053138;28;20031;-73
2023/11/21 04:14:18;;;;;;;40.67;24.70;;;7.40;99.90;;;;;;5053140;28;20029;-73
2023/11/21 04:16:43;;;;;;;44.38;25.10;;;7.40;99.90;;;;;;5053134;28;20078;-73
2023/11/21 04:19:10;;;;;;;45.47;26.77;;;7.40;99.90;;;;;;5052881;28;20074;-73
2023/11/21 04:21:37;;;;;;;41.72;23.73;;;7.40;99.90;;;;;;5052778;28;20055;-73
2023/11/21 04:24:02;;;;;;;57.10;28.42;;;7.40;99.90;;;;;;5053206;28;20138;-74
2023/11/21 04:26:28;;;;;;;66.45;29.70;;;7.40;99.90;;;;;;5053049;28;20050;-73
2023/11/21 04:28:54;;;;;;;64.20;30.67;;;7.50;99.90;;;;;;5052940;28;20033;-73
2023/11/21 04:31:19;;;;;;;58.88;30.05;;;7.50;99.90;;;;;;5053199;28;20491;-73
2023/11/21 04:33:45;;;;;;;60.72;29.10;;;7.50;99.90;;;;;;5053072;28;20035;-73
2023/11/21 04:36:10;;;;;;;53.60;29.05;;;7.50;99.90;;;;;;5052974;28;20021;-73
2023/11/21 04:38:36;;;;;;;56.70;31.33;;;7.50;99.90;;;;;;5052708;28;20521;-73
2023/11/21 04:41:02;;;;;;;57.47;29.13;;;7.50;99.90;;;;;;5053672;28;20029;-73
2023/11/21 04:43:27;;;;;;;56.00;30.27;;;7.50;99.90;;;;;;5056464;28;20024;-73
2023/11/21 04:45:54;;;;;;;53.80;29.60;;;7.50;99.90;;;;;;5056329;28;20390;-73
2023/11/21 04:48:20;;;;;;;53.42;28.73;;;7.50;99.90;;;;;;5056640;28;20035;-73
2023/11/21 04:50:46;;;;;;;58.47;29.75;;;7.50;99.90;;;;;;5056700;28;20029;-74
2023/11/21 04:53:14;;;;;;;62.38;30.23;;;7.50;99.90;;;;;;5056692;28;20501;-74
2023/11/21 04:55:41;;;;;;;56.92;30.30;;;7.50;99.90;;;;;;5056642;28;20030;-73
2023/11/21 04:58:08;;;;;;;56.25;29.55;;;7.50;99.90;;;;;;5056228;28;20092;-73
2023/11/21 05:00:34;;;;;;;66.22;30.15;;;7.50;99.90;;;;;;5056513;28;20021;-73
2023/11/21 05:03:01;;;;;;;57.25;27.13;;;7.50;99.90;;;;;;5056383;28;20368;-74
2023/11/21 05:05:27;;;;;;;52.38;27.17;;;7.60;99.90;;;;;;5056421;28;20028;-73
2023/11/21 05:07:53;;;;;;;48.38;27.63;;;7.60;99.90;;;;;;5056316;28;20037;-73
2023/11/21 05:10:19;;;;;;;52.50;28.65;;;7.60;99.90;;;;;;5056239;28;20458;-73
2023/11/21 05:12:46;;;;;;;57.42;27.90;;;7.50;99.90;;;;;;5055782;28;20036;-74
2023/11/21 05:15:14;;;;;;;53.80;28.15;;;7.60;99.90;;;;;;5056287;28;20559;-74
2023/11/21 05:17:42;;;;;;;46.92;26.23;;;7.60;99.90;;;;;;5056141;28;20116;-74
2023/11/21 05:20:09;;;;;;;63.65;31.08;;;7.50;99.90;;;;;;5055939;28;20029;-74
2023/11/21 05:22:36;;;;;;;46.00;25.88;;;7.50;99.90;;;;;;5056160;28;20557;-74
2023/11/21 05:25:03;;;;;;;53.92;29.05;;;7.50;99.90;;;;;;5056163;28;20115;-74
2023/11/21 05:27:30;;;;;;;58.08;28.35;;;7.50;99.90;;;;;;5056066;28;20036;-74
2023/11/21 05:29:56;;;;;;;54.33;27.48;;;7.40;99.90;;;;;;5055757;28;20052;-73
2023/11/21 05:32:23;;;;;;;41.17;24.90;;;7.40;99.90;;;;;;5056135;28;20482;-74
2023/11/21 05:34:49;;;;;;;51.15;26.92;;;7.40;99.90;;;;;;5055978;28;20041;-73
2023/11/21 05:37:14;;;;;;;51.60;26.98;;;7.40;99.90;;;;;;5055921;28;20078;-73
2023/11/21 05:39:40;;;;;;;60.92;28.75;;;7.40;99.90;;;;;;5055696;28;20072;-74
2023/11/21 05:42:06;;;;;;;48.88;28.23;;;7.40;99.90;;;;;;5055860;28;20029;-74
2023/11/21 05:44:31;;;;;;;49.20;28.10;;;7.40;99.90;;;;;;5055405;28;20025;-73
2023/11/21 05:46:58;;;;;;;46.90;27.98;;;7.40;99.90;;;;;;5055778;28;20390;-74
2023/11/21 05:49:26;;;;;;;54.08;27.65;;;7.40;99.90;;;;;;5055608;28;20479;-74
2023/11/21 05:51:53;;;;;;;71.85;30.83;;;7.40;99.90;;;;;;5055199;28;20029;-73
2023/11/21 05:54:20;;;;;;;80.32;33.85;;;7.50;99.90;;;;;;5055639;28;20053;-74
2023/11/21 05:56:46;;;;;;;79.68;34.55;;;7.50;99.90;;;;;;5055610;28;20037;-74
2023/11/21 05:59:12;;;;;;;80.78;33.92;;;7.50;99.90;;;;;;5055001;28;20551;-74
2023/11/21 06:01:38;;;;;;;68.43;33.40;;;7.60;99.90;;;;;;5055437;28;20112;-73
2023/11/21 06:04:05;;;;;;;91.43;35.78;;;7.60;99.90;;;;;;5055321;28;20155;-73
2023/11/21 06:06:31;;;;;;;105.57;38.05;;;7.60;99.90;;;;;;5055314;28;20021;-73
2023/11/21 06:08:57;;;;;;;105.70;40.17;;;7.60;99.90;;;;;;5055597;28;20033;-74
2023/11/21 06:11:22;;;;;;;115.15;40.08;;;7.70;99.90;;;;;;5055064;28;20029;-73
2023/11/21 06:13:49;;;;;;;121.70;41.88;;;7.70;99.90;;;;;;5055087;28;20138;-72
2023/11/21 06:16:17;;;;;;;116.80;43.42;;;7.70;99.90;;;;;;5055078;28;20029;-73
2023/11/21 06:18:43;;;;;;;134.57;43.78;;;7.70;99.90;;;;;;5054845;28;20557;-74
2023/11/21 06:21:10;;;;;;;119.45;44.88;;;7.70;99.90;;;;;;5054966;28;20052;-73
2023/11/21 06:23:36;;;;;;;117.43;44.35;;;7.80;99.90;;;;;;5054916;28;20021;-73
2023/11/21 06:26:01;;;;;;;101.22;40.80;;;7.80;99.90;;;;;;5054974;28;20471;-74
2023/11/21 06:28:27;;;;;;;119.25;43.13;;;7.80;99.90;;;;;;5054909;28;20478;-73
2023/11/21 06:30:53;;;;;;;109.93;40.92;;;7.90;99.90;;;;;;5054227;28;20025;-74
2023/11/21 06:33:19;;;;;;;112.57;43.38;;;7.90;99.90;;;;;;5054662;28;20145;-74
2023/11/21 06:35:44;;;;;;;108.15;42.13;;;7.90;99.90;;;;;;5054147;28;20021;-74
2023/11/21 06:38:10;;;;;;;120.72;41.67;;;7.90;99.90;;;;;;5054523;28;20111;-73
2023/11/21 06:40:36;;;;;;;117.85;41.58;;;7.90;99.90;;;;;;5054605;28;20025;-73
2023/11/21 06:43:02;;;;;;;112.93;41.50;;;7.90;99.90;;;;;;5054662;28;20025;-73
2023/11/21 06:45:27;;;;;;;103.97;40.78;;;8.00;99.90;;;;;;5054404;28;20478;-73
2023/11/21 06:47:53;;;;;;;109.88;40.85;;;8.00;99.90;;;;;;5053891;28;20058;-73
2023/11/21 06:50:18;;;;;;;109.38;40.50;;;8.00;99.90;;;;;;5053941;28;20021;-74
2023/11/21 06:52:44;;;;;;;110.68;40.10;;;8.00;99.90;;;;;;5054274;28;20111;-74
2023/11/21 06:55:10;;;;;;;118.20;40.78;;;8.00;99.90;;;;;;5053957;28;20072;-73
2023/11/21 06:57:36;;;;;;;119.78;42.72;;;8.00;99.90;;;;;;5054032;28;20390;-74
2023/11/21 07:00:03;;;;;;;126.50;42.00;;;8.10;99.90;;;;;;5053834;28;20406;-74
2023/11/21 07:02:28;;;;;;;125.25;42.38;;;8.10;99.90;;;;;;5053656;28;20025;-73
2023/11/21 07:04:54;;;;;;;148.88;44.63;;;8.10;99.90;;;;;;5044768;28;20028;-74
2023/11/21 07:07:20;;;;;;;147.48;43.20;;;8.10;99.90;;;;;;5049077;28;20386;-74
2023/11/21 07:09:45;;;;;;;151.48;44.78;;;8.10;99.90;;;;;;5052510;28;20033;-73
2023/11/21 07:12:12;;;;;;;157.55;47.20;;;8.20;99.90;;;;;;5050445;28;20079;-74
2023/11/21 07:14:39;;;;;;;166.98;47.05;;;8.20;99.90;;;;;;5044286;28;20036;-74
2023/11/21 07:17:05;;;;;;;171.40;48.50;;;8.20;99.90;;;;;;5052639;28;20124;-74
2023/11/21 07:19:30;;;;;;;186.38;51.78;;;8.20;99.90;;;;;;5053966;28;20112;-74
2023/11/21 07:21:56;;;;;;;182.13;47.83;;;8.20;99.90;;;;;;5051590;28;20025;-74
2023/11/21 07:24:23;;;;;;;174.88;45.78;;;8.20;99.90;;;;;;5048665;28;20548;-73
2023/11/21 07:26:48;;;;;;;177.68;44.78;;;8.20;99.90;;;;;;5053671;28;20033;-73
2023/11/21 07:29:14;;;;;;;177.43;46.25;;;8.20;99.90;;;;;;5048325;28;20029;-75
2023/11/21 07:31:41;;;;;;;178.90;46.20;;;8.30;99.90;;;;;;5047476;28;20117;-73
2023/11/21 07:34:08;;;;;;;184.82;44.88;;;8.30;99.90;;;;;;5050949;28;20037;-73
2023/11/21 07:36:33;;;;;;;180.25;44.47;;;8.30;99.90;;;;;;5048846;28;20036;-74
2023/11/21 07:39:00;;;;;;;177.95;43.97;;;8.30;99.90;;;;;;5055338;28;20512;-74
2023/11/21 07:41:25;;;;;;;148.10;40.58;;;8.30;99.90;;;;;;5059185;28;20048;-75
2023/11/21 07:43:51;;;;;;;160.88;40.40;;;8.30;99.90;;;;;;5050985;28;20181;-75
2023/11/21 07:46:17;;;;;;;134.50;38.75;;;8.40;99.90;;;;;;5046008;28;20032;-74
2023/11/21 07:48:43;;;;;;;164.15;41.15;;;8.40;99.90;;;;;;5051019;28;20116;-75
2023/11/21 07:51:10;;;;;;;149.77;40.35;;;8.40;99.90;;;;;;5043854;28;20124;-75
2023/11/21 07:53:36;;;;;;;159.25;40.88;;;8.40;99.90;;;;;;5055215;28;20605;-75
2023/11/21 07:56:04;;;;;;;145.90;39.28;;;8.50;99.90;;;;;;5053027;28;20398;-76
2023/11/21 07:58:30;;;;;;;147.88;39.55;;;8.50;99.90;;;;;;5054434;28;20052;-75
2023/11/21 08:00:56;;;;;;;140.82;38.10;;;8.50;99.90;;;;;;5053351;28;20112;-75
2023/11/21 08:03:22;;;;;;;143.40;39.58;;;8.50;99.90;;;;;;5052155;28;20061;-75
2023/11/21 08:05:47;;;;;;;152.00;39.65;;;8.50;99.90;;;;;;5054733;28;20033;-75
2023/11/21 08:08:13;;;;;;;143.43;39.88;;;8.50;99.90;;;;;;5051206;28;20085;-74
2023/11/21 08:10:39;;;;;;;159.20;38.35;;;8.60;99.90;;;;;;5054884;28;20442;-75
2023/11/21 08:13:06;;;;;;;155.85;39.67;;;8.60;99.90;;;;;;5065662;28;20389;-74
2023/11/21 08:15:32;;;;;;;146.98;38.90;;;8.60;99.90;;;;;;5058086;28;20021;-73
2023/11/21 08:17:58;;;;;;;136.75;38.08;;;8.60;99.90;;;;;;5047458;28;20043;-73
2023/11/21 08:20:24;;;;;;;135.82;39.38;;;8.70;99.90;;;;;;5059154;28;20381;-74
2023/11/21 08:22:52;;;;;;;130.80;37.28;;;8.70;99.90;;;;;;5064096;28;20020;-73
2023/11/21 08:25:19;;;;;;;132.40;37.72;;;8.70;99.90;;;;;;5058877;28;20029;-73
2023/11/21 08:27:45;;;;;;;135.43;37.53;;;8.70;99.90;;;;;;5065548;28;20060;-74
2023/11/21 08:30:13;;;;;;;132.93;37.20;;;8.70;99.90;;;;;;5052992;28;20025;-72
2023/11/21 08:32:39;;;;;;;158.30;41.63;;;8.60;99.90;;;;;;5053736;28;20033;-74
2023/11/21 08:35:05;;;;;;;149.90;41.13;;;8.60;99.90;;;;;;5051678;28;20090;-73
2023/11/21 08:37:33;;;;;;;148.30;41.28;;;8.60;99.90;;;;;;5053436;28;20025;-74
2023/11/21 08:39:59;;;;;;;144.20;41.40;;;8.60;99.90;;;;;;5053556;28;20398;-74
2023/11/21 08:42:25;;;;;;;157.02;41.63;;;8.60;99.90;;;;;;5047818;28;20478;-74
2023/11/21 08:44:51;;;;;;;154.13;43.75;;;8.70;99.90;;;;;;5047037;28;20030;-75
2023/11/21 08:47:16;;;;;;;155.70;41.58;;;8.70;99.90;;;;;;5047700;28;20032;-73
2023/11/21 08:49:42;;;;;;;149.50;42.05;;;8.70;99.90;;;;;;5062199;28;20573;-73
2023/11/21 08:52:08;;;;;;;147.07;40.28;;;8.70;99.90;;;;;;5053272;28;20083;-73
2023/11/21 08:54:34;;;;;;;142.65;41.15;;;8.70;99.90;;;;;;5051618;28;20479;-73
2023/11/21 08:57:00;;;;;;;160.55;43.35;;;8.80;99.90;;;;;;5057039;28;20035;-73
2023/11/21 08:59:26;;;;;;;143.82;40.30;;;8.80;99.90;;;;;;5055283;28;20068;-73
2023/11/21 09:01:52;;;;;;;144.35;42.17;;;8.80;99.90;;;;;;5055656;28;20025;-73
2023/11/21 09:04:18;;;;;;;150.60;45.08;;;8.80;99.90;;;;;;5055959;28;20028;-74
2023/11/21 09:06:43;;;;;;;126.38;38.17;;;8.80;99.90;;;;;;5054832;28;20482;-73
2023/11/21 09:09:10;;;;;;;130.75;40.15;;;8.90;99.90;;;;;;5054726;28;20025;-72
2023/11/21 09:11:36;;;;;;;129.63;40.28;;;8.80;99.90;;;;;;5058313;28;20395;-73
2023/11/21 09:14:03;;;;;;;145.07;39.75;;;8.90;99.90;;;;;;5052924;28;20199;-73
2023/11/21 09:16:29;;;;;;;118.05;38.22;;;8.90;99.90;;;;;;5054384;28;20064;-73
2023/11/21 09:18:55;;;;;;;111.32;36.83;;;8.90;99.90;;;;;;5063277;28;20510;-73
2023/11/21 09:21:20;;;;;;;119.57;37.15;;;8.90;99.90;;;;;;5065073;28;20025;-73
2023/11/21 09:23:46;;;;;;;114.93;38.55;;;8.90;99.90;;;;;;5067810;28;20024;-74
2023/11/21 09:26:12;;;;;;;114.07;36.17;;;8.90;99.90;;;;;;5060421;28;20098;-74
2023/11/21 09:28:38;;;;;;;106.90;37.08;;;8.90;99.90;;;;;;5062409;28;20041;-73
2023/11/21 09:31:05;;;;;;;117.90;39.05;;;8.90;99.90;;;;;;5063272;28;20505;-73
2023/11/21 09:33:31;;;;;;;111.93;36.33;;;8.90;99.90;;;;;;5063707;28;20581;-73
2023/11/21 09:35:57;;;;;;;115.25;37.90;;;8.90;99.90;;;;;;5059976;28;20028;-74
2023/11/21 09:38:23;;;;;;;118.07;36.72;;;8.90;99.90;;;;;;5053242;28;20056;-73
2023/11/21 09:40:50;;;;;;;101.70;36.78;;;8.90;99.90;;;;;;5051655;28;20067;-73
2023/11/21 09:43:17;;;;;;;122.57;39.15;;;8.90;99.90;;;;;;5047405;28;20116;-73
2023/11/21 09:45:48;;;;;;;113.82;38.08;;;8.90;99.90;;;;;;5040462;28;20034;-73
2023/11/21 09:48:16;;;;;;;126.70;39.83;;;8.90;99.90;;;;;;5043984;28;20067;-73
2023/11/21 09:50:42;;;;;;;129.98;39.28;;;8.90;99.90;;;;;;5050171;28;20052;-73
2023/11/21 09:53:29;;;;;;;112.22;37.50;;;8.90;99.90;;;;;;5053793;28;20029;-73
2023/11/21 09:55:56;;;;;;;109.10;35.03;;;9.00;99.90;;;;;;5052972;28;20078;-73
2023/11/21 09:58:23;;;;;;;99.78;33.53;;;9.00;99.90;;;;;;5043878;28;20160;-73
2023/11/21 10:00:50;;;;;;;98.63;33.40;;;8.90;99.90;;;;;;5042265;28;20022;-73
2023/11/21 10:03:16;;;;;;;102.68;33.55;;;8.90;99.90;;;;;;5044034;28;20033;-73
2023/11/21 10:05:45;;;;;;;104.85;36.17;;;8.90;99.90;;;;;;5046701;28;20035;-72
2023/11/21 10:08:12;;;;;;;102.57;33.50;;;9.00;99.90;;;;;;5043247;28;20923;-75
2023/11/21 10:10:44;;;;;;;107.07;34.55;;;9.00;99.90;;;;;;5042316;28;20087;-73
2023/11/21 10:13:12;;;;;;;105.35;33.80;;;9.00;99.90;;;;;;5041811;28;20060;-73
2023/11/21 10:15:38;;;;;;;105.75;33.45;;;9.00;99.90;;;;;;5043386;28;20527;-74
2023/11/21 10:18:06;;;;;;;103.40;34.03;;;9.10;99.90;;;;;;5038678;28;20056;-73
2023/11/21 10:20:34;;;;;;;93.35;32.95;;;9.10;99.90;;;;;;5059988;28;20032;-73
2023/11/21 10:23:02;;;;;;;99.05;33.00;;;9.20;99.90;;;;;;5069473;28;20032;-73
2023/11/21 10:25:28;;;;;;;86.88;30.98;;;9.20;99.90;;;;;;5042429;28;20041;-74
2023/11/21 10:28:05;;;;;;;81.10;30.40;;;9.20;99.90;;;;;;5045454;28;20025;-73
2023/11/21 10:30:37;;;;;;;77.22;28.90;;;9.30;99.90;;;;;;5039266;28;20368;-73
2023/11/21 10:33:04;;;;;;;72.90;27.08;;;9.30;99.90;;;;;;5040558;28;20052;-73
2023/11/21 10:35:50;;;;;;;77.15;27.23;;;9.30;99.90;;;;;;5039000;28;20082;-72
2023/11/21 10:38:16;;;;;;;73.05;29.05;;;9.30;99.90;;;;;;5033221;28;20033;-74
2023/11/21 10:40:44;;;;;;;67.85;26.30;;;9.30;99.90;;;;;;5045003;28;20479;-73
2023/11/21 10:43:10;;;;;;;57.55;24.65;;;9.30;99.90;;;;;;5051042;28;20029;-73
2023/11/21 10:45:37;;;;;;;58.90;25.17;;;9.30;99.90;;;;;;5045971;28;20037;-73
2023/11/21 10:48:07;;;;;;;50.92;20.60;;;9.30;99.90;;;;;;5051758;28;20017;-73
2023/11/21 10:50:35;;;;;;;47.35;21.52;;;9.20;99.90;;;;;;5045409;28;20119;-73
2023/11/21 10:53:05;;;;;;;46.63;20.95;;;9.20;99.90;;;;;;5056808;28;20037;-73
2023/11/21 10:55:32;;;;;;;47.28;20.90;;;9.30;99.90;;;;;;5046827;28;20032;-73
2023/11/21 10:58:02;;;;;;;48.95;20.42;;;9.30;99.90;;;;;;5053364;28;20180;-74
2023/11/21 11:00:28;;;;;;;47.60;20.80;;;9.30;99.90;;;;;;5046910;28;20044;-73
2023/11/21 11:02:55;;;;;;;46.33;19.50;;;9.40;99.90;;;;;;5052149;28;20105;-74
2023/11/21 11:05:25;;;;;;;39.45;19.55;;;9.30;99.90;;;;;;5050846;28;20029;-73
2023/11/21 11:07:59;;;;;;;39.97;18.42;;;9.30;99.90;;;;;;5049287;28;20025;-73
2023/11/21 11:10:27;;;;;;;41.47;19.85;;;9.30;99.90;;;;;;5050951;28;20061;-73
2023/11/21 11:12:55;;;;;;;45.38;21.02;;;9.30;99.90;;;;;;5053665;28;20490;-73
2023/11/21 11:15:21;;;;;;;43.47;19.90;;;9.20;99.90;;;;;;5046779;28;20032;-74
2023/11/21 11:17:48;;;;;;;38.55;19.58;;;9.30;99.90;;;;;;5045043;28;20029;-73
2023/11/21 11:20:17;;;;;;;37.03;18.60;;;9.20;99.90;;;;;;5047358;28;20043;-73
2023/11/21 11:23:13;;;;;;;45.92;19.80;;;9.20;99.90;;;;;;5051688;28;20037;-73
2023/11/21 11:26:12;;;;;;;43.40;19.27;;;9.20;99.90;;;;;;5051714;28;20154;-74
2023/11/21 11:28:47;;;;;;;41.67;19.02;;;9.20;99.90;;;;;;5053574;28;20429;-73
2023/11/21 11:31:40;;;;;;;39.70;17.95;;;9.10;99.90;;;;;;5050988;28;20029;-73
2023/11/21 11:34:32;;;;;;;40.53;18.15;;;9.10;99.90;;;;;;5050191;28;20021;-73
2023/11/21 11:37:08;;;;;;;40.80;18.48;;;9.20;99.90;;;;;;5043859;28;20043;-72
2023/11/21 11:39:41;;;;;;;36.25;17.83;;;9.10;99.90;;;;;;5053243;28;20060;-73
2023/11/21 11:42:08;;;;;;;;;;;9.20;99.90;;;;;;5052881;28;20025;-73
2023/11/21 11:44:51;;;;;;;38.45;18.05;;;9.10;99.90;;;;;;5051892;28;19916;-73
2023/11/21 11:50:06;;;;;;;37.42;18.23;;;9.10;99.90;;;;;;5088625;28;20432;-72
2023/11/21 11:52:54;;;;;;;36.53;18.83;;;9.20;99.90;;;;;;5090666;28;20039;-73
2023/11/21 11:55:23;;;;;;;41.45;18.50;;;9.20;99.90;;;;;;5090440;28;20029;-72
2023/11/21 11:57:51;;;;;;;40.90;19.38;;;9.10;99.90;;;;;;5082642;28;20043;-73
2023/11/21 12:00:21;;;;;;;37.13;18.48;;;9.10;99.90;;;;;;5071882;28;20090;-73
2023/11/21 12:02:49;;;;;;;34.60;17.30;;;9.10;99.90;;;;;;5088036;28;20101;-73
2023/11/21 12:05:18;;;;;;;39.15;17.88;;;9.20;99.90;;;;;;5071814;28;20115;-73
2023/11/21 12:08:03;;;;;;;34.72;18.17;;;9.20;99.90;;;;;;5076916;28;20028;-73
2023/11/21 12:10:30;;;;;;;38.28;19.17;;;9.20;99.90;;;;;;5081678;28;20032;-73
2023/11/21 12:12:59;;;;;;;37.53;18.70;;;9.30;99.90;;;;;;5080293;28;20123;-73
2023/11/21 12:15:25;;;;;;;41.20;19.23;;;9.20;99.90;;;;;;5088286;28;20094;-73
2023/11/21 12:17:52;;;;;;;40.95;19.42;;;9.30;99.90;;;;;;5087387;28;20044;-73
2023/11/21 12:20:20;;;;;;;43.40;19.70;;;9.20;99.90;;;;;;5082349;28;20071;-73
2023/11/21 12:22:47;;;;;;;38.13;19.38;;;9.20;99.90;;;;;;5088456;28;20033;-72
2023/11/21 12:25:16;;;;;;;43.28;21.00;;;9.20;99.90;;;;;;5078511;28;20021;-73
2023/11/21 12:27:43;;;;;;;36.42;19.35;;;9.10;99.90;;;;;;5085152;28;20038;-72
2023/11/21 12:30:13;;;;;;;41.83;18.77;;;9.10;99.90;;;;;;5077878;28;20569;-72
2023/11/21 12:32:41;;;;;;;41.95;19.63;;;9.10;99.90;;;;;;5086406;28;20032;-74
2023/11/21 12:35:08;;;;;;;39.83;18.95;;;9.10;99.90;;;;;;5075686;28;20099;-72